This is the latest recevied weather packets stored in our database for station/object WW0K. If no packets are shown the sender has not sent any weather packets the latest 10 day(s).
| Time | Temp. | Humidity | Pressure | Rain* | Wind** | Luminosity | Snow |
|---|---|---|---|---|---|---|---|
| 1777115722 | 5° C | 99% | - | 0 mm | - | - | - |
| 1777115131 | 5.56° C | 99% | - | 0 mm | - | - | - |
| 1777112122 | 5° C | 99% | - | 0 mm | - | - | - |
| 1777100728 | 6.67° C | 98% | - | 0 mm | - | - | - |
| 1777098375 | 6.67° C | 98% | - | 0 mm | - | - | - |
| 1777097722 | 6.67° C | 98% | - | 0 mm | - | - | - |
| 1777092934 | 7.22° C | 93% | - | 0 mm | - | - | - |
| 1777086922 | 8.89° C | 88% | - | 0 mm | - | - | - |
| 1777085122 | 9.44° C | 81% | - | 0 mm | - | - | - |
| 1777084528 | 9.44° C | 82% | - | 0 mm | - | - | - |
| 1777083934 | 10° C | 81% | - | 0 mm | - | - | - |
| 1777083343 | 10.56° C | 77% | - | 0 mm | - | - | - |
| 1777077922 | 16.67° C | 54% | - | 0 mm | - | - | - |
| 1777074954 | 20.56° C | 43% | - | 0 mm | - | - | - |
| 1777073134 | 20° C | 45% | - | 0 mm | - | - | - |
| 1777072521 | 19.44° C | 47% | - | 0 mm | - | - | - |
| 1777070128 | 19.44° C | 49% | - | 0 mm | - | - | - |
| 1777068922 | 19.44° C | 49% | - | 0 mm | - | - | - |
| 1777066568 | 19.44° C | 50% | - | 0 mm | - | - | - |
| 1777065933 | 19.44° C | 50% | - | 0 mm | - | - | - |
| 1777065341 | 19.44° C | 51% | - | 0 mm | - | - | - |
| 1777064136 | 18.89° C | 52% | - | 0 mm | - | - | - |
| 1777063521 | 18.89° C | 51% | - | 0 mm | - | - | - |
| 1777059326 | 17.78° C | 53% | - | 0 mm | - | - | - |
| 1777055726 | 16.67° C | 56% | - | 0 mm | - | - | - |
* Rain latest hour (hover to see other rain measurements)
** Current wind speed in m/s (hover to see current wind gust speed)